Time;durP1;ratioP1;P1;durP2;ratioP2;P2;SDS_P1;SDS_P2;PMS_P1;PMS_P2;Temp;Humidity;BMP_temperature;BMP_pressure;BME280_temperature;BME280_humidity;BME280_pressure;Samples;Min_cycle;Max_cycle;Signal;HPM_P1;HPM_P2
2021/12/05 00:18:50;;;;;;;9.00;2.08;;;18.50;99.90;;;;;;5007569;28;20393;-87
2021/12/05 00:21:39;;;;;;;9.15;1.98;;;18.70;99.90;;;;;;5007521;28;20517;-86
2021/12/05 00:24:18;;;;;;;8.65;1.98;;;18.90;99.90;;;;;;4995869;28;20397;-87
2021/12/05 00:26:56;;;;;;;8.05;1.80;;;18.90;99.90;;;;;;5025571;28;20385;-84
2021/12/05 00:29:35;;;;;;;8.60;1.83;;;19.00;99.90;;;;;;4996439;28;20395;-85
2021/12/05 00:38:16;;;;;;;8.13;1.70;;;19.20;99.90;;;;;;5014245;28;20384;-86
2021/12/05 00:43:43;;;;;;;11.95;2.10;;;19.40;99.90;;;;;;5015027;28;20394;-85
2021/12/05 01:15:53;;;;;;;8.43;2.00;;;20.40;99.30;;;;;;5027107;28;20404;-87
2021/12/05 01:18:21;;;;;;;8.18;2.10;;;19.90;99.90;;;;;;5024679;28;20397;-85
2021/12/05 01:20:55;;;;;;;13.03;2.37;;;19.70;99.90;;;;;;5026325;28;20749;-86
2021/12/05 01:23:34;;;;;;;10.68;1.95;;;19.60;99.90;;;;;;5006781;28;20875;-84
2021/12/05 01:36:51;;;;;;;9.88;2.00;;;20.00;99.90;;;;;;5021343;28;20384;-85
2021/12/05 01:42:07;;;;;;;8.20;1.77;;;20.30;99.90;;;;;;5039654;28;20427;-89
2021/12/05 01:44:57;;;;;;;8.57;1.90;;;20.10;99.90;;;;;;5040260;28;20392;-85
2021/12/05 01:47:45;;;;;;;7.18;1.80;;;20.10;99.90;;;;;;5020284;28;20435;-85
2021/12/05 02:12:14;;;;;;;9.43;1.70;;;20.60;95.70;;;;;;5029137;28;20377;-85
2021/12/05 02:34:07;;;;;;;9.10;1.98;;;19.60;97.90;;;;;;4992032;28;20896;-87
2021/12/05 02:39:39;;;;;;;10.38;2.10;;;19.70;96.80;;;;;;4946278;28;20496;-86
2021/12/05 02:42:24;;;;;;;10.65;1.92;;;19.80;97.10;;;;;;4987711;28;20376;-88
2021/12/05 02:44:51;;;;;;;7.78;1.77;;;19.90;97.00;;;;;;5002466;28;20471;-85
2021/12/05 02:47:22;;;;;;;9.43;1.80;;;20.10;96.90;;;;;;5009780;28;20432;-83
2021/12/05 02:49:52;;;;;;;8.43;1.95;;;20.20;95.80;;;;;;5017436;28;20397;-86
2021/12/05 02:52:27;;;;;;;8.63;1.90;;;20.30;95.60;;;;;;5028680;28;20781;-89
2021/12/05 02:54:57;;;;;;;9.10;1.83;;;20.40;95.00;;;;;;5028507;28;20734;-86
2021/12/05 02:57:45;;;;;;;9.85;1.70;;;20.50;94.50;;;;;;5028589;28;20434;-85
2021/12/05 03:00:24;;;;;;;7.32;1.85;;;20.60;94.00;;;;;;5019465;28;20790;-84
2021/12/05 03:02:53;;;;;;;8.70;1.80;;;20.60;93.40;;;;;;4990807;28;20394;-84
2021/12/05 03:05:22;;;;;;;10.00;1.90;;;20.60;94.00;;;;;;5009424;28;20942;-84
2021/12/05 03:07:56;;;;;;;10.20;2.10;;;20.50;93.90;;;;;;5019207;28;20406;-84
2021/12/05 03:10:24;;;;;;;10.68;2.28;;;20.40;94.50;;;;;;5022808;28;20756;-84
2021/12/05 03:12:51;;;;;;;10.70;2.13;;;20.30;95.20;;;;;;5024205;28;20740;-85
2021/12/05 03:15:19;;;;;;;6.75;1.85;;;20.10;95.40;;;;;;5012604;28;20393;-84
2021/12/05 03:17:47;;;;;;;8.60;1.90;;;20.00;95.30;;;;;;5014364;28;20545;-84
2021/12/05 03:20:15;;;;;;;9.05;2.30;;;19.80;95.40;;;;;;5016891;28;20920;-84
2021/12/05 03:22:42;;;;;;;12.15;2.60;;;19.70;96.30;;;;;;5026566;28;20448;-83
2021/12/05 03:25:10;;;;;;;11.77;2.10;;;19.70;96.20;;;;;;5015024;28;20475;-84
2021/12/05 03:27:39;;;;;;;9.43;2.20;;;19.60;96.00;;;;;;5010715;28;20417;-89
2021/12/05 03:30:09;;;;;;;11.03;1.87;;;19.60;95.60;;;;;;5024495;28;20383;-91
2021/12/05 03:32:37;;;;;;;9.73;2.20;;;19.50;95.60;;;;;;5009662;28;20375;-83
2021/12/05 03:35:06;;;;;;;9.03;1.93;;;19.40;96.30;;;;;;5009680;28;20386;-92
2021/12/05 03:37:34;;;;;;;9.48;2.30;;;19.30;96.70;;;;;;5009393;28;20375;-87
2021/12/05 03:40:01;;;;;;;9.38;2.28;;;19.30;96.90;;;;;;5008656;28;20388;-88
2021/12/05 03:42:28;;;;;;;9.38;1.90;;;19.30;96.80;;;;;;5009925;28;20398;-93
2021/12/05 03:44:55;;;;;;;7.68;2.20;;;19.30;97.20;;;;;;5010274;28;20868;-87
2021/12/05 03:47:22;;;;;;;11.10;2.05;;;19.30;96.70;;;;;;5009463;28;20514;-92
2021/12/05 03:49:49;;;;;;;9.70;2.05;;;19.20;97.20;;;;;;5013282;28;20392;-85
2021/12/05 03:52:17;;;;;;;10.82;2.30;;;17.80;96.80;;;;;;5035557;28;20396;-94
2021/12/05 03:54:45;;;;;;;9.63;2.42;;;19.10;97.40;;;;;;5028443;28;20388;-89
2021/12/05 03:57:13;;;;;;;13.77;2.33;;;19.10;97.50;;;;;;5028627;28;20395;-89
2021/12/05 03:59:40;;;;;;;8.15;2.25;;;19.00;97.10;;;;;;5028592;28;20381;-88
2021/12/05 04:02:08;;;;;;;11.20;2.05;;;19.00;97.20;;;;;;5016638;28;20777;-91
2021/12/05 04:04:39;;;;;;;10.45;2.13;;;18.90;96.30;;;;;;5017781;28;20437;-92
2021/12/05 04:07:07;;;;;;;12.82;2.20;;;18.80;96.10;;;;;;5008611;28;20466;-89
2021/12/05 04:09:35;;;;;;;9.18;2.20;;;18.80;96.60;;;;;;5008665;28;20395;-92
2021/12/05 04:12:03;;;;;;;12.90;2.20;;;18.80;96.20;;;;;;5008802;28;20453;-89
2021/12/05 04:14:35;;;;;;;9.68;2.10;;;18.80;96.30;;;;;;5009008;28;20394;-91
2021/12/05 04:17:04;;;;;;;11.18;2.03;;;18.90;95.60;;;;;;5009130;28;20367;-81
2021/12/05 04:19:32;;;;;;;10.23;2.00;;;18.90;95.90;;;;;;5012193;28;20383;-83
2021/12/05 04:21:59;;;;;;;9.60;1.90;;;19.00;95.30;;;;;;5007399;28;20882;-82
2021/12/05 04:24:28;;;;;;;9.40;1.85;;;19.10;94.30;;;;;;5015923;28;20718;-77
2021/12/05 04:26:55;;;;;;;8.33;2.00;;;19.20;93.80;;;;;;5011720;28;20387;-77
2021/12/05 04:29:22;;;;;;;10.13;1.77;;;19.30;93.60;;;;;;5007192;28;20383;-79
2021/12/05 04:31:50;;;;;;;8.90;1.83;;;19.40;93.00;;;;;;5007652;28;20367;-83
2021/12/05 04:34:17;;;;;;;7.63;1.80;;;19.40;92.60;;;;;;5007215;28;20391;-79
2021/12/05 04:36:44;;;;;;;8.80;2.00;;;19.40;92.80;;;;;;5017142;28;20536;-78
2021/12/05 04:39:13;;;;;;;9.57;1.83;;;19.30;92.70;;;;;;5021945;28;20388;-82
2021/12/05 04:41:42;;;;;;;8.35;1.70;;;19.30;92.80;;;;;;5007199;28;20375;-89
2021/12/05 04:44:09;;;;;;;9.35;1.98;;;19.20;92.60;;;;;;5006937;28;20806;-88
2021/12/05 04:46:37;;;;;;;9.30;2.10;;;19.20;92.60;;;;;;4991675;28;20393;-87
2021/12/05 04:49:06;;;;;;;9.00;1.80;;;19.10;92.40;;;;;;5007842;28;20433;-88
2021/12/05 04:51:38;;;;;;;9.18;1.90;;;19.10;93.30;;;;;;5008652;28;20405;-85
2021/12/05 04:54:07;;;;;;;8.98;1.70;;;19.10;92.60;;;;;;5007583;28;20744;-84
2021/12/05 04:56:34;;;;;;;10.70;1.98;;;19.10;92.80;;;;;;5007161;28;20391;-85
2021/12/05 04:59:10;;;;;;;12.82;1.98;;;19.20;92.50;;;;;;5012316;28;20457;-85
2021/12/05 05:01:38;;;;;;;9.90;1.73;;;19.20;92.00;;;;;;5006754;28;20398;-84
2021/12/05 05:04:12;;;;;;;7.05;1.77;;;19.10;91.40;;;;;;5005750;28;20414;-87
2021/12/05 05:06:39;;;;;;;9.07;1.85;;;19.00;91.60;;;;;;5011119;28;20383;-86
2021/12/05 05:09:06;;;;;;;8.93;1.75;;;19.00;91.80;;;;;;5010756;28;20418;-87
2021/12/05 05:11:33;;;;;;;9.52;1.70;;;19.00;92.20;;;;;;5011023;28;20406;-86
2021/12/05 05:14:00;;;;;;;8.07;1.73;;;18.90;92.00;;;;;;5010767;28;20387;-85
2021/12/05 05:16:27;;;;;;;8.88;1.90;;;19.00;91.60;;;;;;5010852;28;20974;-82
2021/12/05 05:18:58;;;;;;;9.52;1.77;;;18.90;91.40;;;;;;5010803;28;20380;-83
2021/12/05 05:40:53;;;;;;;8.73;1.70;;;19.00;90.70;;;;;;5010634;28;20374;-87
2021/12/05 05:51:03;;;;;;;7.20;1.60;;;18.80;90.50;;;;;;5030726;28;20373;-84
2021/12/05 05:53:31;;;;;;;7.20;1.67;;;18.80;90.70;;;;;;5034911;28;20407;-88
2021/12/05 05:55:58;;;;;;;8.90;1.90;;;18.80;90.50;;;;;;5039382;28;20845;-85
2021/12/05 05:58:38;;;;;;;10.40;1.90;;;18.80;89.30;;;;;;5040275;28;20473;-86
2021/12/05 06:01:18;;;;;;;7.32;1.67;;;18.70;89.80;;;;;;5036615;28;20790;-85
2021/12/05 06:03:45;;;;;;;8.68;1.98;;;18.70;90.00;;;;;;5019627;28;20391;-89
2021/12/05 06:06:15;;;;;;;8.52;1.90;;;18.70;89.50;;;;;;5008995;28;20394;-84
2021/12/05 06:08:44;;;;;;;8.60;1.58;;;18.80;89.80;;;;;;5011555;28;21034;-89
2021/12/05 06:11:14;;;;;;;8.67;1.70;;;18.80;89.90;;;;;;5011742;28;20407;-87
2021/12/05 06:13:42;;;;;;;8.68;1.80;;;18.90;89.30;;;;;;5009911;28;20445;-87
2021/12/05 06:16:10;;;;;;;7.13;1.80;;;18.90;90.20;;;;;;5004003;28;20403;-85
2021/12/05 06:18:38;;;;;;;8.68;1.67;;;18.90;90.40;;;;;;4994594;28;20487;-85
2021/12/05 06:21:06;;;;;;;9.20;2.00;;;18.90;90.00;;;;;;5002342;28;20397;-90
2021/12/05 06:23:34;;;;;;;6.32;1.60;;;18.90;89.60;;;;;;5008846;28;20409;-84
2021/12/05 06:26:02;;;;;;;8.23;1.77;;;18.90;89.50;;;;;;5009956;28;20883;-84
2021/12/05 06:28:36;;;;;;;6.57;1.48;;;18.70;89.30;;;;;;5009873;28;20460;-82
2021/12/05 06:31:15;;;;;;;7.13;1.60;;;18.70;89.40;;;;;;5009723;28;20799;-85
2021/12/05 06:47:32;;;;;;;7.00;1.70;;;18.50;89.30;;;;;;4996896;28;20406;-89
2021/12/05 06:50:00;;;;;;;6.30;1.90;;;18.50;90.40;;;;;;5012997;28;20416;-85
2021/12/05 06:52:27;;;;;;;7.65;1.67;;;18.40;90.40;;;;;;4992491;28;20426;-81
2021/12/05 06:54:54;;;;;;;10.60;2.08;;;18.30;90.70;;;;;;5010705;28;20387;-89
2021/12/05 06:57:21;;;;;;;7.95;1.70;;;18.30;91.20;;;;;;4991457;28;20479;-81
2021/12/05 06:59:49;;;;;;;8.55;1.67;;;18.30;91.20;;;;;;5009191;28;20508;-90
2021/12/05 07:02:19;;;;;;;8.75;1.80;;;18.30;90.70;;;;;;5008534;28;20387;-84
2021/12/05 07:07:36;;;;;;;9.20;1.63;;;18.40;91.00;;;;;;5010396;28;20426;-85
2021/12/05 07:10:06;;;;;;;6.10;1.60;;;18.50;90.70;;;;;;5014083;28;20474;-82
2021/12/05 07:24:02;;;;;;;6.63;1.60;;;18.50;89.50;;;;;;5009542;28;20742;-86
2021/12/05 07:42:33;;;;;;;7.97;1.75;;;18.30;89.60;;;;;;5008399;28;20382;-87
2021/12/05 07:45:03;;;;;;;10.80;2.10;;;18.20;90.30;;;;;;5009512;28;20379;-86
2021/12/05 07:47:32;;;;;;;6.65;1.77;;;18.20;90.60;;;;;;4996414;28;20421;-86
2021/12/05 07:50:07;;;;;;;8.82;1.80;;;18.20;90.60;;;;;;5010192;28;20395;-92
2021/12/05 07:52:39;;;;;;;9.48;1.70;;;18.20;91.20;;;;;;4991706;28;20395;-81
2021/12/05 07:55:22;;;;;;;11.32;2.05;;;18.10;91.70;;;;;;5007302;28;20401;-89
2021/12/05 08:14:38;;;;;;;9.82;1.98;;;18.00;92.40;;;;;;5016007;28;20484;-85
2021/12/05 08:17:07;;;;;;;9.15;1.67;;;18.00;92.30;;;;;;5005607;28;20391;-86
2021/12/05 08:19:34;;;;;;;10.80;1.90;;;18.00;92.50;;;;;;5007803;28;20445;-85
2021/12/05 08:22:01;;;;;;;10.60;2.00;;;18.00;92.20;;;;;;5007307;28;20542;-85
2021/12/05 08:24:32;;;;;;;8.47;1.90;;;18.00;92.50;;;;;;5011157;28;20517;-83
2021/12/05 08:27:00;;;;;;;9.45;1.67;;;18.00;92.40;;;;;;5007096;28;20798;-88
2021/12/05 08:29:38;;;;;;;8.77;1.75;;;18.00;92.30;;;;;;5016019;28;20497;-87
2021/12/05 09:21:26;;;;;;;7.95;1.70;;;17.50;94.70;;;;;;5009409;28;20445;-87
2021/12/05 09:24:08;;;;;;;8.45;1.70;;;17.50;94.80;;;;;;5007720;28;20409;-88
2021/12/05 09:26:59;;;;;;;9.98;1.80;;;17.40;95.30;;;;;;5005755;28;20375;-88
2021/12/05 09:51:44;;;;;;;8.00;1.77;;;17.40;94.80;;;;;;4987958;28;20388;-82
2021/12/05 10:02:35;;;;;;;7.43;1.95;;;17.40;94.50;;;;;;4990642;28;20903;-82
2021/12/05 10:10:43;;;;;;;9.00;1.77;;;17.40;94.60;;;;;;4958173;28;20377;-83
2021/12/05 10:13:24;;;;;;;9.23;1.70;;;17.40;94.30;;;;;;4998786;28;20747;-83
2021/12/05 10:19:39;;;;;;;10.20;1.83;;;17.30;93.80;;;;;;5008895;28;20460;-84
2021/12/05 10:38:27;;;;;;;9.98;2.33;;;17.00;96.40;;;;;;5008614;28;20402;-82
2021/12/05 10:43:47;;;;;;;9.38;1.90;;;16.90;97.40;;;;;;5009125;28;20373;-84
2021/12/05 10:46:17;;;;;;;11.00;2.00;;;16.90;97.80;;;;;;4999755;28;20401;-83
2021/12/05 10:48:47;;;;;;;11.37;2.03;;;16.80;98.30;;;;;;5004676;28;20422;-88
2021/12/05 10:51:37;;;;;;;6.63;1.92;;;16.80;98.40;;;;;;5009023;28;20868;-84
2021/12/05 10:54:17;;;;;;;7.23;1.83;;;16.70;99.00;;;;;;4991599;28;20729;-85
2021/12/05 10:56:54;;;;;;;10.23;1.90;;;16.70;98.90;;;;;;5008169;28;20722;-83
2021/12/05 10:59:31;;;;;;;8.15;2.03;;;16.60;99.10;;;;;;5006783;28;20494;-82
2021/12/05 11:02:01;;;;;;;6.68;2.05;;;16.60;99.40;;;;;;5014354;28;20385;-82
2021/12/05 11:04:35;;;;;;;11.63;2.75;;;16.60;99.40;;;;;;5011774;28;20383;-83
2021/12/05 11:07:10;;;;;;;11.85;2.78;;;16.60;99.50;;;;;;5006488;28;20379;-82
2021/12/05 11:09:44;;;;;;;10.70;2.30;;;16.60;99.90;;;;;;5025159;28;20393;-82
2021/12/05 11:12:18;;;;;;;9.82;2.47;;;16.50;99.90;;;;;;5028288;28;20385;-84
2021/12/05 11:14:52;;;;;;;9.23;1.90;;;16.50;99.90;;;;;;5010606;28;20387;-82
2021/12/05 11:17:26;;;;;;;12.18;1.90;;;16.40;99.90;;;;;;5008606;28;20371;-86
2021/12/05 11:19:54;;;;;;;9.68;2.08;;;16.40;99.90;;;;;;5018577;28;20401;-83
2021/12/05 11:22:24;;;;;;;10.88;2.03;;;16.40;99.90;;;;;;5010200;28;20906;-90
2021/12/05 11:24:54;;;;;;;11.27;2.00;;;16.30;99.90;;;;;;5028351;28;20485;-87
2021/12/05 11:27:42;;;;;;;9.65;2.05;;;16.20;99.90;;;;;;5029623;28;20370;-87
2021/12/05 11:30:20;;;;;;;11.57;2.30;;;16.20;99.90;;;;;;5012568;28;20400;-84
2021/12/05 11:32:58;;;;;;;9.98;1.88;;;16.20;99.90;;;;;;5014128;28;20441;-87
2021/12/05 11:35:28;;;;;;;9.00;2.00;;;16.10;99.90;;;;;;5010590;28;20383;-89
2021/12/05 11:37:55;;;;;;;9.30;1.90;;;16.10;99.90;;;;;;5009333;28;20441;-89
2021/12/05 11:40:24;;;;;;;10.23;1.90;;;16.10;99.90;;;;;;5010315;28;20457;-89
2021/12/05 11:43:02;;;;;;;9.65;2.03;;;16.10;99.90;;;;;;5010788;28;20411;-83
2021/12/05 11:45:48;;;;;;;11.02;2.13;;;16.10;99.90;;;;;;4995103;28;20387;-84
2021/12/05 11:48:23;;;;;;;10.32;2.00;;;16.10;99.90;;;;;;5022513;28;20413;-89
2021/12/05 11:50:50;;;;;;;8.20;1.90;;;16.10;99.90;;;;;;5031079;28;20386;-90
2021/12/05 11:53:39;;;;;;;9.45;1.90;;;16.10;99.90;;;;;;5024072;28;20418;-91
2021/12/05 11:56:07;;;;;;;10.95;2.15;;;16.10;99.90;;;;;;5009380;28;20371;-89
2021/12/05 11:58:35;;;;;;;9.75;1.98;;;16.10;99.90;;;;;;5008441;28;20403;-90
2021/12/05 12:01:14;;;;;;;7.88;1.90;;;16.10;99.90;;;;;;4990033;28;20759;-89
2021/12/05 12:03:41;;;;;;;12.30;1.97;;;16.00;99.90;;;;;;5007476;28;20411;-89
2021/12/05 12:06:09;;;;;;;10.23;2.13;;;16.00;99.90;;;;;;5007923;28;20422;-89
2021/12/05 12:08:36;;;;;;;7.97;2.00;;;15.90;99.90;;;;;;5007274;28;20410;-89
2021/12/05 12:11:04;;;;;;;8.95;2.20;;;15.90;99.90;;;;;;5007250;28;20402;-88
2021/12/05 12:13:35;;;;;;;9.95;2.38;;;15.80;99.90;;;;;;5007158;28;20799;-89
2021/12/05 12:16:08;;;;;;;11.25;2.50;;;15.80;99.90;;;;;;5006883;28;20878;-90
2021/12/05 12:18:40;;;;;;;10.35;2.40;;;15.80;99.90;;;;;;5007608;28;20494;-89
2021/12/05 12:21:17;;;;;;;14.17;2.70;;;15.80;99.90;;;;;;5007773;28;20368;-88
2021/12/05 12:23:46;;;;;;;10.00;2.20;;;15.80;99.90;;;;;;5007468;28;20410;-89
2021/12/05 12:26:13;;;;;;;11.10;2.30;;;15.80;99.90;;;;;;5007704;28;20402;-87
2021/12/05 12:28:41;;;;;;;10.77;2.53;;;15.70;99.90;;;;;;5008166;28;20403;-87
2021/12/05 12:31:11;;;;;;;8.33;2.47;;;15.70;99.90;;;;;;5006654;28;20391;-88
2021/12/05 12:33:58;;;;;;;10.47;2.60;;;15.70;99.90;;;;;;5007687;28;20391;-87
2021/12/05 12:36:45;;;;;;;11.57;2.60;;;15.70;99.90;;;;;;5007403;28;20399;-89
2021/12/05 12:39:20;;;;;;;11.73;2.78;;;15.70;99.90;;;;;;5005623;28;20466;-88
2021/12/05 12:42:13;;;;;;;10.30;2.78;;;15.80;99.90;;;;;;5007918;28;20445;-89
2021/12/05 12:44:58;;;;;;;12.90;2.97;;;15.70;99.90;;;;;;4988444;28;20741;-88
2021/12/05 12:47:51;;;;;;;11.13;2.87;;;15.80;99.90;;;;;;5008070;28;20398;-87
2021/12/05 12:50:50;;;;;;;10.65;2.90;;;15.70;99.90;;;;;;5007668;28;20420;-88
2021/12/05 12:53:23;;;;;;;12.60;2.92;;;15.70;99.90;;;;;;5006819;28;20473;-80
2021/12/05 12:55:52;;;;;;;11.88;2.70;;;15.70;99.90;;;;;;5008337;28;20882;-88
2021/12/05 12:58:43;;;;;;;13.20;3.27;;;15.70;99.90;;;;;;5007018;28;20387;-87
2021/12/05 13:01:49;;;;;;;10.32;2.80;;;15.70;99.90;;;;;;5007239;28;20413;-87
2021/12/05 13:04:34;;;;;;;10.63;2.80;;;15.70;99.90;;;;;;5007021;28;20899;-87
2021/12/05 13:12:41;;;;;;;11.00;3.00;;;15.70;99.90;;;;;;4988029;28;20468;-83
2021/12/05 13:15:20;;;;;;;10.23;2.65;;;15.70;99.90;;;;;;5005421;28;20398;-88
2021/12/05 13:17:53;;;;;;;14.97;2.87;;;15.70;99.90;;;;;;4988018;28;20373;-89
2021/12/05 13:20:27;;;;;;;11.75;2.60;;;15.70;99.90;;;;;;5007049;28;20393;-89
2021/12/05 13:23:18;;;;;;;11.47;2.87;;;15.60;99.90;;;;;;5009861;28;20477;-88
2021/12/05 13:26:23;;;;;;;13.98;2.92;;;15.60;99.90;;;;;;5022846;28;20387;-89
2021/12/05 13:28:58;;;;;;;11.52;2.72;;;15.60;99.90;;;;;;5008956;28;20418;-87
2021/12/05 13:31:33;;;;;;;9.23;2.57;;;15.60;99.90;;;;;;5010743;28;20721;-88
2021/12/05 13:34:20;;;;;;;12.95;2.92;;;15.60;99.90;;;;;;5011331;28;20379;-88
2021/12/05 13:37:20;;;;;;;10.95;2.70;;;15.60;99.90;;;;;;5010964;28;20863;-88
2021/12/05 13:40:10;;;;;;;10.45;2.70;;;15.60;99.90;;;;;;5010549;28;20661;-87
2021/12/05 13:42:47;;;;;;;12.47;2.90;;;15.50;99.90;;;;;;5010763;28;20379;-88
2021/12/05 13:45:21;;;;;;;10.15;2.83;;;15.50;99.90;;;;;;5010716;28;20763;-89
2021/12/05 13:47:54;;;;;;;10.82;2.83;;;15.50;99.90;;;;;;5011867;28;20779;-89
2021/12/05 13:50:30;;;;;;;11.00;2.93;;;15.50;99.90;;;;;;5011032;28;20992;-88
2021/12/05 13:53:03;;;;;;;12.38;3.28;;;15.50;99.90;;;;;;5010664;28;20374;-86
2021/12/05 13:55:40;;;;;;;13.38;3.10;;;15.50;99.90;;;;;;5010499;28;20520;-89
2021/12/05 13:58:24;;;;;;;9.38;3.00;;;15.50;99.90;;;;;;5010603;28;20425;-88
2021/12/05 14:01:07;;;;;;;13.52;3.40;;;15.50;99.90;;;;;;5010522;28;20779;-87
2021/12/05 14:03:42;;;;;;;18.65;3.25;;;15.50;99.90;;;;;;5010214;28;20432;-88
2021/12/05 14:06:33;;;;;;;11.20;2.80;;;15.40;99.90;;;;;;5011599;28;20474;-89
2021/12/05 14:09:37;;;;;;;12.38;2.60;;;15.40;99.90;;;;;;5009672;28;20549;-88
2021/12/05 14:12:31;;;;;;;13.90;2.67;;;15.40;99.90;;;;;;5009639;28;20469;-89
2021/12/05 14:15:07;;;;;;;17.10;2.90;;;15.40;99.90;;;;;;5009652;28;20387;-88
2021/12/05 14:17:42;;;;;;;12.48;2.55;;;15.40;99.90;;;;;;5006192;28;20783;-89
2021/12/05 14:20:19;;;;;;;14.07;2.63;;;15.40;99.90;;;;;;5011151;28;20487;-87
2021/12/05 14:22:48;;;;;;;10.85;2.30;;;15.40;99.90;;;;;;5009983;28;20422;-88
2021/12/05 14:25:19;;;;;;;13.68;2.67;;;15.40;99.90;;;;;;4977640;28;20759;-89
2021/12/05 14:28:01;;;;;;;10.77;2.38;;;15.50;99.90;;;;;;5020606;28;20399;-89
2021/12/05 14:30:32;;;;;;;12.25;2.75;;;15.40;99.90;;;;;;5010511;28;20407;-87
2021/12/05 14:32:59;;;;;;;14.40;2.97;;;15.40;99.90;;;;;;5022052;28;20461;-88
2021/12/05 14:35:39;;;;;;;14.73;2.95;;;15.40;99.90;;;;;;5021181;28;20391;-89
2021/12/05 14:38:08;;;;;;;16.90;3.40;;;15.40;99.90;;;;;;5015087;28;20383;-88
2021/12/05 14:40:37;;;;;;;10.85;2.80;;;15.40;99.90;;;;;;5012628;28;20713;-88
2021/12/05 14:43:10;;;;;;;10.05;2.70;;;15.40;99.90;;;;;;5012276;28;20728;-88
2021/12/05 14:45:40;;;;;;;13.30;3.28;;;15.40;99.90;;;;;;5011555;28;20437;-88
2021/12/05 14:48:14;;;;;;;14.77;3.55;;;15.40;99.90;;;;;;5004033;28;20461;-89
2021/12/05 14:50:44;;;;;;;19.57;5.73;;;15.30;99.90;;;;;;4994216;28;20399;-90
2021/12/05 14:53:13;;;;;;;15.35;4.50;;;15.30;99.90;;;;;;5010812;28;20367;-89
2021/12/05 14:55:41;;;;;;;17.00;4.25;;;15.30;99.90;;;;;;4993822;28;20879;-90
2021/12/05 14:58:14;;;;;;;19.00;4.03;;;15.20;99.90;;;;;;5011013;28;20395;-89
2021/12/05 15:00:45;;;;;;;17.27;3.83;;;15.20;99.90;;;;;;5010313;28;20488;-87
2021/12/05 15:03:21;;;;;;;16.65;3.40;;;15.20;99.90;;;;;;5009883;28;20394;-87
2021/12/05 15:05:57;;;;;;;18.33;3.60;;;15.80;99.90;;;;;;5009915;28;20418;-89
2021/12/05 15:08:31;;;;;;;15.95;3.20;;;15.30;99.90;;;;;;5009588;28;20866;-88
2021/12/05 15:11:02;;;;;;;13.40;3.30;;;15.30;99.90;;;;;;5003790;28;20395;-89
2021/12/05 15:13:29;;;;;;;15.43;3.42;;;15.30;99.90;;;;;;5009598;28;20855;-86
2021/12/05 15:15:58;;;;;;;11.93;2.97;;;15.40;99.90;;;;;;5011917;28;20394;-89
2021/12/05 15:18:33;;;;;;;15.52;3.20;;;15.50;99.90;;;;;;5009246;28;20382;-88
2021/12/05 15:21:01;;;;;;;18.53;5.30;;;15.50;99.90;;;;;;5008727;28;20950;-89
2021/12/05 15:23:33;;;;;;;21.77;6.43;;;15.50;99.90;;;;;;5009065;28;20387;-88
2021/12/05 15:26:03;;;;;;;22.13;6.53;;;15.40;99.90;;;;;;5008717;28;20398;-89
2021/12/05 15:28:30;;;;;;;22.87;5.93;;;15.40;99.90;;;;;;5008406;28;20481;-89
2021/12/05 15:30:57;;;;;;;23.73;6.00;;;15.30;99.90;;;;;;5008405;28;20414;-88
2021/12/05 15:33:27;;;;;;;18.50;4.68;;;15.40;99.90;;;;;;5008574;28;21184;-88
2021/12/05 15:35:56;;;;;;;13.25;3.83;;;15.40;99.90;;;;;;5008158;28;20391;-89
2021/12/05 15:38:27;;;;;;;12.25;3.08;;;15.50;99.90;;;;;;5008435;28;20415;-88
2021/12/05 15:41:05;;;;;;;15.82;3.10;;;15.50;99.90;;;;;;5008006;28;20391;-89
2021/12/05 15:43:35;;;;;;;11.13;2.80;;;15.40;99.90;;;;;;4996515;28;20419;-89
2021/12/05 15:46:04;;;;;;;13.77;2.90;;;15.50;99.90;;;;;;4992086;28;20478;-88
2021/12/05 15:48:36;;;;;;;10.10;2.67;;;15.50;99.90;;;;;;5008835;28;20399;-88
2021/12/05 15:51:07;;;;;;;11.90;2.50;;;15.40;99.90;;;;;;5007677;28;20403;-87
2021/12/05 15:53:35;;;;;;;13.30;2.50;;;15.40;99.90;;;;;;5008162;28;20937;-88
2021/12/05 15:56:06;;;;;;;11.82;2.55;;;15.40;99.90;;;;;;5007515;28;20794;-82
2021/12/05 15:58:40;;;;;;;12.70;2.58;;;15.30;99.90;;;;;;4989958;28;20383;-88
2021/12/05 16:01:14;;;;;;;13.65;2.58;;;15.30;99.90;;;;;;5008307;28;20399;-84
2021/12/05 16:03:42;;;;;;;13.77;2.63;;;15.30;99.90;;;;;;4971704;28;20377;-88
2021/12/05 16:06:13;;;;;;;13.18;2.63;;;15.30;99.90;;;;;;4990311;28;20397;-87
2021/12/05 16:08:40;;;;;;;11.95;2.20;;;15.40;99.90;;;;;;5007579;28;20413;-89
2021/12/05 16:11:13;;;;;;;10.17;2.30;;;15.40;99.90;;;;;;5010022;28;20435;-88
2021/12/05 16:13:42;;;;;;;15.40;2.63;;;15.30;99.90;;;;;;4988388;28;20881;-86
2021/12/05 16:16:24;;;;;;;11.63;2.17;;;15.40;99.90;;;;;;4997358;28;20386;-88
2021/12/05 16:18:57;;;;;;;13.23;2.53;;;15.40;99.90;;;;;;5007795;28;20387;-89
2021/12/05 16:21:28;;;;;;;11.38;2.20;;;15.40;99.90;;;;;;5012118;28;20385;-89
2021/12/05 16:24:14;;;;;;;13.40;2.80;;;15.40;99.90;;;;;;5010226;28;20965;-88
2021/12/05 16:26:43;;;;;;;9.13;2.20;;;15.40;99.90;;;;;;5008048;28;20886;-89
2021/12/05 16:29:15;;;;;;;8.23;2.10;;;15.30;99.90;;;;;;5007898;28;20411;-90
2021/12/05 16:31:45;;;;;;;13.57;2.60;;;15.30;99.90;;;;;;5007991;28;20387;-89
2021/12/05 16:34:20;;;;;;;11.43;2.45;;;15.30;99.90;;;;;;5007718;28;20402;-86
2021/12/05 16:36:59;;;;;;;16.45;2.40;;;15.30;99.90;;;;;;4989971;28;20391;-85
2021/12/05 16:39:49;;;;;;;14.48;2.85;;;15.30;99.90;;;;;;5007918;28;20422;-89
2021/12/05 16:42:20;;;;;;;13.50;3.13;;;15.30;99.90;;;;;;5007736;28;20383;-88
2021/12/05 16:44:55;;;;;;;17.58;2.75;;;15.30;99.90;;;;;;5011192;28;20359;-89
2021/12/05 16:47:27;;;;;;;9.27;2.38;;;15.30;99.90;;;;;;5009271;28;21240;-90
2021/12/05 16:49:56;;;;;;;11.07;2.37;;;15.30;99.90;;;;;;5009261;28;20367;-92
2021/12/05 16:52:37;;;;;;;13.82;2.40;;;15.30;99.90;;;;;;5008357;28;20414;-90
2021/12/05 16:55:15;;;;;;;12.40;2.50;;;15.30;99.90;;;;;;5008538;28;20478;-89
2021/12/05 16:57:53;;;;;;;12.88;2.42;;;15.30;99.90;;;;;;5008469;28;20395;-90
2021/12/05 17:00:24;;;;;;;10.75;1.80;;;15.30;99.90;;;;;;5008307;28;20438;-90
2021/12/05 17:02:59;;;;;;;10.83;2.40;;;15.30;99.90;;;;;;5022488;28;20389;-89
2021/12/05 17:05:45;;;;;;;14.85;2.70;;;15.30;99.90;;;;;;4998790;28;20394;-89
2021/12/05 17:08:17;;;;;;;13.40;2.40;;;15.30;99.90;;;;;;5022565;28;21284;-90
2021/12/05 17:10:48;;;;;;;11.45;2.15;;;15.30;99.90;;;;;;5011474;28;20415;-89
2021/12/05 17:13:22;;;;;;;12.38;2.30;;;15.40;99.90;;;;;;5011520;28;20918;-90
2021/12/05 17:16:20;;;;;;;11.45;2.50;;;15.50;99.90;;;;;;5011521;28;20394;-90
2021/12/05 17:19:02;;;;;;;11.02;2.35;;;15.50;99.90;;;;;;4992140;28;20381;-89
2021/12/05 17:21:49;;;;;;;11.52;2.10;;;15.60;99.90;;;;;;5005188;28;20434;-89
2021/12/05 17:24:20;;;;;;;10.93;2.40;;;15.60;99.90;;;;;;5011095;28;20393;-85
2021/12/05 17:26:52;;;;;;;10.10;2.20;;;15.60;99.90;;;;;;5010977;28;20402;-87
2021/12/05 17:29:23;;;;;;;11.02;2.30;;;15.60;99.90;;;;;;4994654;28;20414;-89
2021/12/05 17:32:05;;;;;;;12.88;2.10;;;15.60;99.90;;;;;;5010780;28;20423;-88
2021/12/05 17:34:56;;;;;;;11.45;2.20;;;15.60;99.90;;;;;;5011005;28;20389;-89
2021/12/05 17:37:28;;;;;;;10.60;2.15;;;15.70;99.90;;;;;;5007065;28;20383;-87
2021/12/05 17:39:57;;;;;;;11.32;2.35;;;15.70;99.90;;;;;;4992727;28;20383;-87
2021/12/05 17:42:26;;;;;;;11.45;2.13;;;15.70;99.90;;;;;;5010541;28;20379;-88
2021/12/05 17:44:56;;;;;;;8.38;2.17;;;15.70;99.90;;;;;;5010827;28;20387;-87
2021/12/05 17:47:27;;;;;;;11.40;2.10;;;15.70;99.90;;;;;;5011328;28;20399;-88
2021/12/05 17:49:57;;;;;;;10.57;2.10;;;15.70;99.90;;;;;;5010921;28;20448;-90
2021/12/05 17:52:27;;;;;;;11.03;2.20;;;15.70;99.90;;;;;;5010975;28;20372;-90
2021/12/05 17:55:04;;;;;;;12.50;2.30;;;15.70;99.90;;;;;;5010700;28;20747;-88
2021/12/05 17:57:44;;;;;;;12.90;2.20;;;15.70;99.90;;;;;;5011033;28;20509;-89
2021/12/05 18:00:34;;;;;;;11.80;2.30;;;15.70;99.90;;;;;;5010782;28;20770;-89
2021/12/05 18:03:04;;;;;;;9.85;2.20;;;15.70;99.90;;;;;;5013851;28;20487;-89
2021/12/05 18:05:40;;;;;;;13.73;2.53;;;15.70;99.90;;;;;;5030967;28;20937;-90
2021/12/05 18:08:15;;;;;;;12.55;2.58;;;15.70;99.90;;;;;;5030000;28;20429;-89
2021/12/05 18:10:54;;;;;;;11.82;2.30;;;15.70;99.90;;;;;;5010052;28;20946;-89
2021/12/05 18:13:24;;;;;;;15.10;2.50;;;15.70;99.90;;;;;;5009087;28;20407;-89
2021/12/05 18:15:58;;;;;;;9.25;2.03;;;15.70;99.90;;;;;;5010241;28;20387;-88
2021/12/05 18:18:29;;;;;;;11.40;2.70;;;15.70;99.90;;;;;;5026294;28;20729;-89
2021/12/05 18:20:57;;;;;;;12.70;2.28;;;15.70;99.90;;;;;;5012345;28;20378;-90
2021/12/05 18:23:24;;;;;;;11.50;2.70;;;15.70;99.90;;;;;;5025649;28;20379;-90
2021/12/05 18:25:51;;;;;;;12.70;2.67;;;15.70;99.90;;;;;;5009765;28;20379;-89
2021/12/05 18:28:18;;;;;;;12.60;2.30;;;15.70;99.90;;;;;;5009631;28;20883;-90